CheckWX is a tool to help pilots better visualize weather data.  It is not intended as a substitute for an official pre-flight weather briefing.

00:17:23 UTC

PASC TAF
Deadhorse Airport
Deadhorse, Alaska, USA
PASC 182337Z 1900/1924 09024G33KT P6SM SCT015 FM190400 10023G30KT 1 1/2SM BLSN BR BKN010 FM191800 10018G25KT 5SM BLSN OVC015

Oct-19@
00:00 UTC

Oct-19 @ 00:00 UTC

Oct-19@
04:00 UTC

Oct-19 @ 04:00 UTC

PASC 182337Z 1900/1924 09024G33KT P6SM SCT015
Wind
  • 090° at 24 KTS
  • {Gusting to 33 KTS
Cloud Levels
  • Scattered at 1,500' AGL

Oct-19@
04:00 UTC

Oct-19 @ 04:00 UTC

Oct-19@
18:00 UTC

Oct-19 @ 18:00 UTC

FM190400 10023G30KT 1 1/2SM BLSN BR BKN010

From

From Standard forecast or significant change

Wind
  • 100° at 23 KTS
  • {Gusting to 30 KTS
Conditions
Blowing Snow, Mist
Cloud Levels
  • Broken at 1,000' AGL

Oct-19@
18:00 UTC

Oct-19 @ 18:00 UTC

Oct-20@
00:00 UTC

Oct-20 @ 00:00 UTC

FM191800 10018G25KT 5SM BLSN OVC015

From

From Standard forecast or significant change

Wind
  • 100° at 18 KTS
  • {Gusting to 25 KTS
Conditions
Blowing Snow
Cloud Levels
  • Overcast at 1,500' AGL